Astoria, New York
Current Conditions -  °F | °C
As of 11:51 PM on Tuesday 21 Oct 2014 (Local Time) from KNYC Reporting Station
Broken Clouds Broken Clouds  
Wind Chill: 56°   Ceiling: 2500
Heat Index: 56°   Visibility: 10mi
Dew Point: 53°   Wind: 7mph
Humidity: 90%   Direction: NA
Pressure: 29.93"   Gusts: NA
Location:  40.77°N, 73.93°W
Report Text: KNYC 220351Z AUTO VRB06KT 10SM SCT018 BKN025 13/12 A2993 RMK AO2 SLP125 T01330117 $
Loading
Personal Weather Stations






























Interactive Weather Map
Tropical Storm Tracking
New forecast layout! Learn more

10-Day Weather Forecast

Advertisements
Track Severe Weather on mobile